Time;durP1;ratioP1;P1;durP2;ratioP2;P2;SDS_P1;SDS_P2;PMS_P1;PMS_P2;Temp;Humidity;BMP_temperature;BMP_pressure;BME280_temperature;BME280_humidity;BME280_pressure;Samples;Min_cycle;Max_cycle;Signal;HPM_P1;HPM_P2
2023/04/16 00:02:11;;;;;;;;;;;;;;;8.93;76.59;101436.78;107559;1257;73211;-80
2023/04/16 00:04:38;;;;;;;;;;;;;;;8.91;76.52;101435.83;107231;1259;124886;-80
2023/04/16 00:07:06;;;;;;;;;;;;;;;8.87;76.48;101432.16;107608;1257;62188;-79
2023/04/16 00:09:34;;;;;;;;;;;;;;;8.81;76.58;101428.03;107543;1257;125129;-80
2023/04/16 00:12:01;;;;;;;;;;;;;;;8.80;76.68;101429.59;107733;1257;65620;-80
2023/04/16 00:14:28;;;;;;;;;;;;;;;8.79;76.72;101434.08;108022;1261;249421;-79
2023/04/16 00:16:55;;;;;;;;;;;;;;;8.75;76.86;101430.58;107802;1257;124889;-80
2023/04/16 00:19:22;;;;;;;;;;;;;;;8.72;76.78;101431.34;108138;1257;59368;-80
2023/04/16 00:21:49;;;;;;;;;;;;;;;8.71;76.94;101433.55;107929;1257;124805;-79
2023/04/16 00:24:16;;;;;;;;;;;;;;;8.68;77.03;101431.17;108037;1258;66342;-79
2023/04/16 00:26:45;;;;;;;;;;;;;;;8.67;77.13;101429.40;107493;1261;125349;-79
2023/04/16 00:29:12;;;;;;;;;;;;;;;8.68;77.22;101434.48;107486;1262;60951;-78
2023/04/16 00:31:38;;;;;;;;;;;;;;;8.68;77.27;101432.39;107767;1260;61188;-79
2023/04/16 00:34:05;;;;;;;;;;;;;;;8.68;77.32;101431.35;107924;1260;124871;-79
2023/04/16 00:36:32;;;;;;;;;;;;;;;8.65;77.26;101432.95;107997;1257;65177;-79
2023/04/16 00:38:59;;;;;;;;;;;;;;;8.61;77.27;101435.77;107636;1257;72696;-79
2023/04/16 00:41:26;;;;;;;;;;;;;;;8.57;77.33;101434.17;107422;1257;61119;-79
2023/04/16 00:43:54;;;;;;;;;;;;;;;8.56;77.54;101435.72;107189;1257;61228;-80
2023/04/16 00:46:21;;;;;;;;;;;;;;;8.57;77.61;101435.92;107310;1262;125252;-80
2023/04/16 00:48:48;;;;;;;;;;;;;;;8.57;77.69;101433.84;108877;1256;65557;-79
2023/04/16 00:51:15;;;;;;;;;;;;;;;8.57;77.77;101438.38;108709;1257;125236;-79
2023/04/16 00:53:42;;;;;;;;;;;;;;;8.56;77.71;101438.17;108640;1257;61174;-80
2023/04/16 00:56:10;;;;;;;;;;;;;;;8.53;77.68;101441.55;107497;1256;60379;-81
2023/04/16 00:58:37;;;;;;;;;;;;;;;8.50;77.78;101444.54;107099;1258;125657;-80
2023/04/16 01:01:04;;;;;;;;;;;;;;;8.48;77.87;101442.35;108070;1256;65996;-80
2023/04/16 01:03:38;;;;;;;;;;;;;;;8.46;77.84;101443.46;107039;1260;125205;-80
2023/04/16 01:06:08;;;;;;;;;;;;;;;8.46;77.90;101447.69;106964;1260;61138;-80
2023/04/16 01:08:40;;;;;;;;;;;;;;;8.47;78.09;101448.44;107554;1257;61289;-79
2023/04/16 01:11:08;;;;;;;;;;;;;;;8.46;77.88;101446.98;107537;1258;74603;-82
2023/04/16 01:13:38;;;;;;;;;;;;;;;8.47;78.06;101448.77;107391;1257;67621;-79
2023/04/16 01:16:09;;;;;;;;;;;;;;;8.47;78.00;101448.44;107118;1256;125047;-81
2023/04/16 01:18:36;;;;;;;;;;;;;;;8.47;78.03;101448.59;107221;1257;60475;-78
2023/04/16 01:21:03;;;;;;;;;;;;;;;8.46;78.06;101450.12;107185;1257;124888;-79
2023/04/16 01:23:30;;;;;;;;;;;;;;;8.45;78.08;101448.85;107345;1256;75261;-79
2023/04/16 01:25:57;;;;;;;;;;;;;;;8.43;77.99;101448.92;107294;1257;65805;-79
2023/04/16 01:28:24;;;;;;;;;;;;;;;8.40;78.09;101447.89;107495;1257;125250;-79
2023/04/16 01:30:52;;;;;;;;;;;;;;;8.37;78.09;101447.46;108795;1256;59588;-79
2023/04/16 01:33:24;;;;;;;;;;;;;;;8.37;78.14;101446.36;108863;1256;124811;-80
2023/04/16 01:35:51;;;;;;;;;;;;;;;8.33;78.12;101443.39;107889;1257;74681;-81
2023/04/16 01:38:18;;;;;;;;;;;;;;;8.34;78.35;101449.20;107267;1257;64858;-80
2023/04/16 01:40:45;;;;;;;;;;;;;;;8.35;78.36;101448.20;107102;1257;125516;-79
2023/04/16 01:43:12;;;;;;;;;;;;;;;8.36;78.35;101446.15;107312;1256;59795;-80
2023/04/16 01:45:39;;;;;;;;;;;;;;;8.39;78.41;101446.64;107344;1256;124876;-80
2023/04/16 01:48:06;;;;;;;;;;;;;;;8.40;78.33;101441.41;107292;1256;74768;-81
2023/04/16 01:50:33;;;;;;;;;;;;;;;8.39;78.36;101445.77;107298;1256;65654;-81
2023/04/16 01:53:03;;;;;;;;;;;;;;;8.39;78.36;101445.42;107347;1256;124975;-81
2023/04/16 01:55:32;;;;;;;;;;;;;;;8.38;78.25;101445.40;107620;1256;61054;-81
2023/04/16 01:57:59;;;;;;;;;;;;;;;8.35;78.29;101446.31;107395;1256;124594;-80
2023/04/16 02:00:26;;;;;;;;;;;;;;;8.34;78.14;101448.34;107530;1262;73506;-80
2023/04/16 02:02:53;;;;;;;;;;;;;;;8.33;78.27;101449.36;107702;1256;124906;-80
2023/04/16 02:05:22;;;;;;;;;;;;;;;8.34;78.22;101446.77;107787;1256;72706;-80
2023/04/16 02:07:50;;;;;;;;;;;;;;;8.36;78.29;101447.38;107690;1256;62045;-80
2023/04/16 02:10:19;;;;;;;;;;;;;;;8.38;78.31;101449.23;106951;1257;124813;-80
2023/04/16 02:12:46;;;;;;;;;;;;;;;8.37;78.30;101451.30;107289;1256;74666;-80
2023/04/16 02:15:14;;;;;;;;;;;;;;;8.33;78.14;101450.56;107097;1260;125290;-80
2023/04/16 02:17:41;;;;;;;;;;;;;;;8.30;78.20;101448.88;107473;1256;70715;-78
2023/04/16 02:20:09;;;;;;;;;;;;;;;8.31;78.25;101446.98;107620;1260;60484;-79
2023/04/16 02:22:36;;;;;;;;;;;;;;;8.28;78.23;101448.23;108774;1256;125205;-78
2023/04/16 02:25:03;;;;;;;;;;;;;;;8.27;78.25;101450.64;108853;1257;72610;-78
2023/04/16 02:27:30;;;;;;;;;;;;;;;8.25;78.31;101449.86;108707;1257;125226;-79
2023/04/16 02:29:57;;;;;;;;;;;;;;;8.25;78.38;101447.94;108800;1256;72428;-79
2023/04/16 02:32:24;;;;;;;;;;;;;;;8.23;78.43;101450.30;108851;1256;59823;-78
2023/04/16 02:34:51;;;;;;;;;;;;;;;8.19;78.32;101450.81;107410;1257;124834;-79
2023/04/16 02:37:18;;;;;;;;;;;;;;;8.18;78.54;101451.83;107410;1257;74729;-80
2023/04/16 02:39:48;;;;;;;;;;;;;;;8.17;78.52;101454.23;107405;1256;125165;-78
2023/04/16 02:42:15;;;;;;;;;;;;;;;8.12;78.49;101454.86;107717;1257;71045;-78
2023/04/16 02:44:42;;;;;;;;;;;;;;;8.07;78.60;101451.80;107187;1263;124997;-79
2023/04/16 02:47:09;;;;;;;;;;;;;;;8.04;78.68;101452.92;107470;1256;59853;-79
2023/04/16 02:49:36;;;;;;;;;;;;;;;8.04;78.84;101453.80;107472;1256;74918;-78
2023/04/16 02:52:03;;;;;;;;;;;;;;;8.05;79.00;101458.90;107347;1262;125733;-78
2023/04/16 02:54:30;;;;;;;;;;;;;;;8.05;78.94;101458.54;108764;1256;72437;-78
2023/04/16 02:56:57;;;;;;;;;;;;;;;8.04;78.89;101457.79;108716;1256;125319;-78
2023/04/16 02:59:24;;;;;;;;;;;;;;;8.04;78.96;101461.98;108771;1261;59434;-78
2023/04/16 03:01:51;;;;;;;;;;;;;;;8.01;78.94;101463.98;108612;1257;75182;-79
2023/04/16 03:04:18;;;;;;;;;;;;;;;8.02;78.98;101465.40;108699;1257;125146;-79
2023/04/16 03:06:45;;;;;;;;;;;;;;;8.03;79.12;101467.20;108683;1257;72487;-79
2023/04/16 03:09:12;;;;;;;;;;;;;;;8.06;79.20;101465.08;108685;1256;125304;-79
2023/04/16 03:11:39;;;;;;;;;;;;;;;8.05;79.11;101469.02;108923;1257;59386;-79
2023/04/16 03:14:06;;;;;;;;;;;;;;;8.04;79.11;101470.22;108787;1256;75140;-79
2023/04/16 03:16:33;;;;;;;;;;;;;;;8.02;79.17;101468.37;108742;1257;125279;-79
2023/04/16 03:19:00;;;;;;;;;;;;;;;8.01;79.14;101471.14;108840;1256;72411;-79
2023/04/16 03:21:27;;;;;;;;;;;;;;;7.96;79.13;101472.46;108776;1257;125408;-79
2023/04/16 03:23:54;;;;;;;;;;;;;;;7.90;79.09;101469.41;108856;1258;59408;-79
2023/04/16 03:26:21;;;;;;;;;;;;;;;7.89;79.24;101469.16;108831;1256;74682;-79
2023/04/16 03:28:48;;;;;;;;;;;;;;;7.88;79.32;101470.69;108692;1257;124976;-79
2023/04/16 03:31:15;;;;;;;;;;;;;;;7.86;79.35;101471.30;108870;1256;71380;-79
2023/04/16 03:33:42;;;;;;;;;;;;;;;7.88;79.47;101473.34;108438;1256;124574;-78
2023/04/16 03:36:09;;;;;;;;;;;;;;;7.90;79.53;101471.52;107684;1259;61101;-78
2023/04/16 03:38:36;;;;;;;;;;;;;;;7.88;79.40;101474.20;107264;1256;74755;-79
2023/04/16 03:41:03;;;;;;;;;;;;;;;7.86;79.43;101474.93;108692;1256;124860;-80
2023/04/16 03:43:30;;;;;;;;;;;;;;;7.86;79.38;101476.70;108891;1257;72565;-80
2023/04/16 03:45:57;;;;;;;;;;;;;;;7.84;79.54;101479.23;108721;1256;124656;-79
2023/04/16 03:48:24;;;;;;;;;;;;;;;7.82;79.46;101481.58;108886;1256;59416;-80
2023/04/16 03:50:52;;;;;;;;;;;;;;;7.83;79.61;101486.55;108750;1256;125313;-79
2023/04/16 03:53:19;;;;;;;;;;;;;;;7.84;79.54;101487.79;108818;1256;67178;-79
2023/04/16 03:55:48;;;;;;;;;;;;;;;7.83;79.64;101489.16;108690;1256;72662;-79
2023/04/16 03:58:15;;;;;;;;;;;;;;;7.83;79.51;101488.08;107486;1256;125392;-80
2023/04/16 04:00:42;;;;;;;;;;;;;;;7.80;79.55;101488.67;107465;1257;59874;-80
2023/04/16 04:03:09;;;;;;;;;;;;;;;7.79;79.69;101492.30;107817;1256;125610;-79
2023/04/16 04:05:40;;;;;;;;;;;;;;;7.82;79.77;101494.84;107800;1256;66329;-80
2023/04/16 04:08:08;;;;;;;;;;;;;;;7.84;79.68;101497.06;107720;1256;71387;-80
2023/04/16 04:10:35;;;;;;;;;;;;;;;7.82;79.64;101499.07;107414;1259;124721;-79
2023/04/16 04:13:02;;;;;;;;;;;;;;;7.83;79.74;101504.34;107515;1257;60405;-80
2023/04/16 04:15:29;;;;;;;;;;;;;;;7.83;79.75;101504.51;107538;1256;125264;-80
2023/04/16 04:17:56;;;;;;;;;;;;;;;7.82;79.66;101501.51;107409;1257;67586;-80
2023/04/16 04:20:25;;;;;;;;;;;;;;;7.83;79.75;101506.27;107290;1256;72802;-80
2023/04/16 04:22:52;;;;;;;;;;;;;;;7.85;79.83;101508.46;107252;1256;124806;-80
2023/04/16 04:25:19;;;;;;;;;;;;;;;7.87;79.86;101510.31;107329;1256;59204;-80
2023/04/16 04:27:46;;;;;;;;;;;;;;;7.86;79.73;101513.91;107354;1256;125178;-80
2023/04/16 04:30:13;;;;;;;;;;;;;;;7.84;79.73;101512.29;107498;1256;66879;-80
2023/04/16 04:32:40;;;;;;;;;;;;;;;7.87;79.78;101517.80;107326;1257;125284;-80
2023/04/16 04:35:07;;;;;;;;;;;;;;;7.85;79.72;101514.23;107211;1256;59957;-79
2023/04/16 04:37:34;;;;;;;;;;;;;;;7.87;79.92;101516.98;107297;1259;61161;-80
2023/04/16 04:40:01;;;;;;;;;;;;;;;7.90;79.77;101518.48;107584;1256;125095;-80
2023/04/16 04:42:28;;;;;;;;;;;;;;;7.86;79.68;101516.70;107857;1258;67054;-80
2023/04/16 04:44:55;;;;;;;;;;;;;;;7.83;79.66;101521.45;107770;1256;125020;-79
2023/04/16 04:47:22;;;;;;;;;;;;;;;7.83;79.89;101519.20;108672;1256;59514;-79
2023/04/16 04:49:49;;;;;;;;;;;;;;;7.87;79.93;101523.39;108770;1259;60154;-80
2023/04/16 04:52:16;;;;;;;;;;;;;;;7.85;79.86;101521.05;108751;1256;125485;-80
2023/04/16 04:54:43;;;;;;;;;;;;;;;7.84;79.99;101525.38;107637;1256;67071;-80
2023/04/16 04:57:10;;;;;;;;;;;;;;;7.86;79.86;101523.90;107511;1256;125221;-78
2023/04/16 04:59:39;;;;;;;;;;;;;;;7.83;79.85;101528.30;107241;1257;61356;-79
2023/04/16 05:02:06;;;;;;;;;;;;;;;7.86;80.00;101528.06;107586;1256;60317;-78
2023/04/16 05:04:33;;;;;;;;;;;;;;;7.91;80.17;101528.02;107322;1256;125492;-78
2023/04/16 05:07:01;;;;;;;;;;;;;;;7.98;80.18;101529.89;108785;1256;65906;-79
2023/04/16 05:09:28;;;;;;;;;;;;;;;8.03;80.16;101528.89;108504;1257;125342;-80
2023/04/16 05:11:56;;;;;;;;;;;;;;;8.08;80.18;101529.50;108781;1256;60033;-77
2023/04/16 05:14:23;;;;;;;;;;;;;;;8.12;80.06;101534.21;108721;1257;59688;-77
2023/04/16 05:16:50;;;;;;;;;;;;;;;8.15;80.09;101536.84;108769;1256;124704;-77
2023/04/16 05:19:17;;;;;;;;;;;;;;;8.27;80.26;101537.70;108941;1256;65606;-78
2023/04/16 05:21:44;;;;;;;;;;;;;;;8.34;80.06;101534.91;107599;1256;125070;-80
2023/04/16 05:24:12;;;;;;;;;;;;;;;8.36;79.87;101540.60;107135;1260;61296;-78
2023/04/16 05:26:39;;;;;;;;;;;;;;;8.40;79.89;101542.54;107175;1260;61397;-78
2023/04/16 05:29:08;;;;;;;;;;;;;;;8.47;79.83;101547.58;107370;1257;73882;-78
2023/04/16 05:31:35;;;;;;;;;;;;;;;8.51;79.76;101549.89;107596;1258;67025;-79
2023/04/16 05:34:07;;;;;;;;;;;;;;;8.55;79.73;101552.17;108380;1256;72219;-81
2023/04/16 05:36:35;;;;;;;;;;;;;;;8.59;79.69;101554.09;107785;1257;59433;-82
2023/04/16 05:39:02;;;;;;;;;;;;;;;8.65;79.67;101554.91;107416;1260;124955;-79
2023/04/16 05:41:29;;;;;;;;;;;;;;;8.72;79.70;101556.96;107239;1264;73045;-81
2023/04/16 05:43:57;;;;;;;;;;;;;;;8.78;79.62;101558.46;107374;1262;65974;-79
2023/04/16 05:46:24;;;;;;;;;;;;;;;8.81;79.45;101560.71;107382;1256;125071;-77
2023/04/16 05:48:51;;;;;;;;;;;;;;;8.81;79.16;101561.20;107679;1256;61154;-78
2023/04/16 05:51:18;;;;;;;;;;;;;;;8.76;79.04;101565.56;108811;1256;125392;-78
2023/04/16 05:53:45;;;;;;;;;;;;;;;8.72;78.97;101566.10;108875;1260;72987;-78
2023/04/16 05:56:12;;;;;;;;;;;;;;;8.70;78.97;101566.85;108708;1256;66138;-78
2023/04/16 05:58:39;;;;;;;;;;;;;;;8.71;79.02;101566.20;108663;1256;125288;-77
2023/04/16 06:01:06;;;;;;;;;;;;;;;8.75;79.08;101570.92;108766;1256;60405;-80
2023/04/16 06:03:33;;;;;;;;;;;;;;;8.79;79.13;101573.04;108717;1256;124660;-78
2023/04/16 06:06:00;;;;;;;;;;;;;;;8.83;78.98;101574.08;108808;1258;73379;-80
2023/04/16 06:08:27;;;;;;;;;;;;;;;8.81;78.76;101574.51;108874;1256;65410;-79
2023/04/16 06:10:55;;;;;;;;;;;;;;;8.75;78.50;101574.78;108648;1256;125210;-78
2023/04/16 06:13:22;;;;;;;;;;;;;;;8.74;78.71;101576.68;108889;1256;59064;-80
2023/04/16 06:15:49;;;;;;;;;;;;;;;8.69;78.44;101578.72;108704;1256;125443;-78
2023/04/16 06:18:16;;;;;;;;;;;;;;;8.68;78.64;101577.08;108887;1256;74988;-78
2023/04/16 06:20:44;;;;;;;;;;;;;;;8.67;78.56;101577.38;108866;1256;67062;-79
2023/04/16 06:23:11;;;;;;;;;;;;;;;8.66;78.58;101581.91;108764;1256;73043;-79
2023/04/16 06:25:38;;;;;;;;;;;;;;;8.60;78.40;101581.95;108888;1256;59603;-78
2023/04/16 06:28:05;;;;;;;;;;;;;;;8.57;78.54;101579.90;108629;1256;124802;-78
2023/04/16 06:30:32;;;;;;;;;;;;;;;8.60;78.75;101584.77;108834;1256;73162;-77
2023/04/16 06:32:59;;;;;;;;;;;;;;;8.73;78.96;101584.14;108728;1257;124920;-79
2023/04/16 06:35:26;;;;;;;;;;;;;;;8.82;78.82;101588.75;108722;1256;71950;-78
2023/04/16 06:37:53;;;;;;;;;;;;;;;8.88;78.70;101589.57;108820;1257;59740;-78
2023/04/16 06:40:20;;;;;;;;;;;;;;;8.93;78.59;101591.37;108714;1257;124881;-77
2023/04/16 06:42:47;;;;;;;;;;;;;;;8.96;78.69;101595.15;108674;1256;74725;-78
2023/04/16 06:45:14;;;;;;;;;;;;;;;9.01;78.41;101594.48;108627;1256;125590;-78
2023/04/16 06:47:41;;;;;;;;;;;;;;;9.02;78.34;101594.90;108802;1256;71110;-78
2023/04/16 06:50:08;;;;;;;;;;;;;;;9.08;78.25;101599.03;108792;1256;59059;-78
2023/04/16 06:52:35;;;;;;;;;;;;;;;9.14;78.19;101601.20;108699;1256;125120;-77
2023/04/16 06:55:02;;;;;;;;;;;;;;;9.23;78.14;101600.90;108775;1257;74689;-78
2023/04/16 06:57:29;;;;;;;;;;;;;;;9.32;78.19;101602.17;108712;1258;125809;-78
2023/04/16 06:59:56;;;;;;;;;;;;;;;9.37;78.06;101603.79;108784;1257;72528;-78
2023/04/16 07:02:23;;;;;;;;;;;;;;;9.38;77.73;101604.70;108696;1256;59689;-78
2023/04/16 07:04:51;;;;;;;;;;;;;;;9.36;77.79;101603.59;108662;1256;123876;-77
2023/04/16 07:07:18;;;;;;;;;;;;;;;9.55;78.13;101605.25;108783;1256;74318;-78
2023/04/16 07:09:45;;;;;;;;;;;;;;;9.68;77.93;101605.31;108731;1256;125388;-79
2023/04/16 07:12:13;;;;;;;;;;;;;;;9.76;77.80;101605.09;108765;1256;71212;-83
2023/04/16 07:14:40;;;;;;;;;;;;;;;9.79;77.42;101607.30;108802;1256;59622;-79
2023/04/16 07:17:07;;;;;;;;;;;;;;;9.83;77.42;101605.02;108662;1256;125122;-83
2023/04/16 07:19:34;;;;;;;;;;;;;;;9.91;77.21;101611.16;108843;1256;74668;-80
2023/04/16 07:22:01;;;;;;;;;;;;;;;9.93;76.80;101608.98;108766;1256;124622;-80
2023/04/16 07:24:28;;;;;;;;;;;;;;;9.87;76.63;101611.69;107615;1263;71279;-80
2023/04/16 07:26:55;;;;;;;;;;;;;;;9.86;76.86;101614.48;107221;1259;124955;-79
2023/04/16 07:29:27;;;;;;;;;;;;;;;9.92;76.78;101616.48;107401;1262;59988;-86
2023/04/16 07:31:54;;;;;;;;;;;;;;;9.85;76.26;101615.13;107504;1256;75197;-79
2023/04/16 07:34:21;;;;;;;;;;;;;;;9.76;76.05;101617.86;107754;1256;123991;-79
2023/04/16 07:36:48;;;;;;;;;;;;;;;9.66;76.04;101615.73;107911;1256;73053;-78
2023/04/16 07:39:15;;;;;;;;;;;;;;;9.65;76.19;101618.49;107900;1256;125035;-77
2023/04/16 07:41:42;;;;;;;;;;;;;;;9.67;76.29;101616.28;107620;1257;60628;-78
2023/04/16 07:44:09;;;;;;;;;;;;;;;9.68;76.41;101620.17;107530;1259;75208;-79
2023/04/16 07:46:36;;;;;;;;;;;;;;;9.60;76.21;101628.10;107355;1256;125288;-79
2023/04/16 07:49:03;;;;;;;;;;;;;;;9.49;76.30;101630.95;107387;1256;72750;-80
2023/04/16 07:51:30;;;;;;;;;;;;;;;9.40;76.30;101628.47;107515;1256;125242;-81
2023/04/16 07:53:57;;;;;;;;;;;;;;;9.32;76.48;101629.67;107497;1256;60202;-80
2023/04/16 07:56:24;;;;;;;;;;;;;;;9.35;76.58;101634.55;107940;1256;72820;-80
2023/04/16 07:58:51;;;;;;;;;;;;;;;9.31;76.25;101631.92;107346;1256;124781;-80
2023/04/16 08:01:18;;;;;;;;;;;;;;;9.34;76.21;101640.27;107282;1256;71724;-80
2023/04/16 08:03:45;;;;;;;;;;;;;;;9.34;75.97;101637.98;107362;1256;125942;-81
2023/04/16 08:06:12;;;;;;;;;;;;;;;9.37;76.04;101643.05;107351;1256;61348;-81
2023/04/16 08:08:39;;;;;;;;;;;;;;;9.48;76.16;101645.44;107479;1256;73416;-81
2023/04/16 08:11:06;;;;;;;;;;;;;;;9.56;75.79;101644.92;108013;1257;124207;-81
2023/04/16 08:13:33;;;;;;;;;;;;;;;9.63;75.65;101648.57;107754;1257;73214;-80
2023/04/16 08:16:00;;;;;;;;;;;;;;;9.73;75.64;101650.04;107566;1259;125210;-81
2023/04/16 08:18:29;;;;;;;;;;;;;;;9.77;75.24;101646.67;107791;1256;59349;-82
2023/04/16 08:20:56;;;;;;;;;;;;;;;9.78;75.00;101651.79;107746;1256;124589;-80
2023/04/16 08:23:23;;;;;;;;;;;;;;;9.81;74.85;101649.98;107288;1256;67656;-81
2023/04/16 08:25:50;;;;;;;;;;;;;;;9.92;74.88;101652.94;107327;1256;72790;-80
2023/04/16 08:28:17;;;;;;;;;;;;;;;10.03;74.62;101656.36;107283;1257;125123;-79
2023/04/16 08:30:45;;;;;;;;;;;;;;;10.18;74.48;101657.35;107546;1256;59418;-81
2023/04/16 08:33:18;;;;;;;;;;;;;;;10.38;74.28;101657.81;107354;1257;124804;-81
2023/04/16 08:35:48;;;;;;;;;;;;;;;10.60;74.22;101653.95;107508;1256;65754;-80
2023/04/16 08:38:15;;;;;;;;;;;;;;;10.90;74.16;101657.42;107322;1256;71387;-81
2023/04/16 08:40:42;;;;;;;;;;;;;;;11.13;73.70;101654.73;107434;1257;124354;-80
2023/04/16 08:43:12;;;;;;;;;;;;;;;11.29;73.23;101654.10;107304;1256;60107;-81
2023/04/16 08:45:40;;;;;;;;;;;;;;;11.32;72.51;101652.65;107505;1256;124261;-81
2023/04/16 08:48:07;;;;;;;;;;;;;;;11.32;72.30;101653.88;107701;1256;66456;-83
2023/04/16 08:50:34;;;;;;;;;;;;;;;11.50;72.57;101651.53;107483;1256;72172;-80
2023/04/16 08:53:05;;;;;;;;;;;;;;;11.87;72.56;101652.11;107394;1256;124149;-81
2023/04/16 08:55:38;;;;;;;;;;;;;;;12.17;71.98;101653.48;107621;1256;61401;-81
2023/04/16 08:58:15;;;;;;;;;;;;;;;12.40;71.98;101655.11;107315;1256;124258;-81
2023/04/16 09:00:42;;;;;;;;;;;;;;;12.66;71.75;101657.52;107337;1257;66076;-80
2023/04/16 09:03:09;;;;;;;;;;;;;;;12.73;70.64;101660.72;107544;1256;124470;-80
2023/04/16 09:05:39;;;;;;;;;;;;;;;12.46;69.71;101659.55;107814;1256;59987;-81
2023/04/16 09:08:06;;;;;;;;;;;;;;;12.29;69.89;101662.67;107607;1262;60183;-83
2023/04/16 09:10:33;;;;;;;;;;;;;;;12.20;69.58;101666.60;106968;1262;124453;-82
2023/04/16 09:13:00;;;;;;;;;;;;;;;12.02;69.51;101665.65;107067;1256;66893;-80
2023/04/16 09:15:28;;;;;;;;;;;;;;;11.86;69.76;101666.86;107865;1257;124460;-81
2023/04/16 09:17:56;;;;;;;;;;;;;;;11.77;69.65;101672.34;108223;1256;59339;-80
2023/04/16 09:20:23;;;;;;;;;;;;;;;11.63;69.48;101671.48;108696;1260;60588;-79
2023/04/16 09:22:50;;;;;;;;;;;;;;;11.54;69.42;101675.05;107510;1256;124227;-79
2023/04/16 09:25:17;;;;;;;;;;;;;;;11.37;69.30;101677.77;107707;1262;67646;-80
2023/04/16 09:27:44;;;;;;;;;;;;;;;11.23;69.41;101685.52;107745;1257;124386;-80
2023/04/16 09:30:21;;;;;;;;;;;;;;;11.13;69.39;101694.09;107628;1256;59290;-80
2023/04/16 09:32:48;;;;;;;;;;;;;;;11.07;69.76;101695.48;107656;1256;60585;-80
2023/04/16 09:35:16;;;;;;;;;;;;;;;11.05;69.78;101696.45;107789;1256;72099;-78
2023/04/16 09:37:44;;;;;;;;;;;;;;;10.98;69.91;101699.15;107996;1260;65935;-81
2023/04/16 09:40:10;;;;;;;;;;;;;;;11.00;69.78;101703.43;107807;1256;124891;-80
2023/04/16 09:42:37;;;;;;;;;;;;;;;11.02;69.83;101699.30;108200;1257;60888;-79
2023/04/16 09:45:05;;;;;;;;;;;;;;;11.11;69.91;101705.47;108610;1256;124219;-80
2023/04/16 09:47:39;;;;;;;;;;;;;;;11.21;69.91;101706.02;108725;1256;74628;-80
2023/04/16 09:50:08;;;;;;;;;;;;;;;11.29;69.30;101711.20;108784;1256;67929;-79
2023/04/16 09:52:41;;;;;;;;;;;;;;;11.26;69.20;101708.10;108675;1256;124139;-79
2023/04/16 09:55:07;;;;;;;;;;;;;;;11.26;69.27;101706.52;108706;1256;59080;-79
2023/04/16 09:57:36;;;;;;;;;;;;;;;11.31;68.97;101705.49;108538;1256;124237;-80
2023/04/16 10:00:04;;;;;;;;;;;;;;;11.36;69.04;101709.02;108025;1256;74696;-80
2023/04/16 10:02:33;;;;;;;;;;;;;;;11.39;68.79;101715.11;108006;1256;67002;-80
2023/04/16 10:05:01;;;;;;;;;;;;;;;11.43;68.75;101716.30;107624;1256;124666;-80
2023/04/16 10:07:28;;;;;;;;;;;;;;;11.54;68.93;101714.77;107473;1259;61140;-81
2023/04/16 10:09:55;;;;;;;;;;;;;;;11.68;68.40;101722.84;107559;1260;124979;-81
2023/04/16 10:12:22;;;;;;;;;;;;;;;11.70;68.09;101725.03;107678;1256;73348;-80
2023/04/16 10:14:49;;;;;;;;;;;;;;;11.69;67.91;101726.05;107415;1256;124341;-83
2023/04/16 10:17:17;;;;;;;;;;;;;;;11.66;67.61;101721.73;107283;1256;72011;-82
2023/04/16 10:19:45;;;;;;;;;;;;;;;11.62;67.53;101727.03;106995;1260;61269;-80
2023/04/16 10:22:14;;;;;;;;;;;;;;;11.63;67.45;101730.23;107576;1256;60677;-80
2023/04/16 10:24:43;;;;;;;;;;;;;;;11.63;67.25;101725.29;107366;1257;73393;-82
2023/04/16 10:27:11;;;;;;;;;;;;;;;11.78;67.59;101725.29;107001;1256;124834;-82
2023/04/16 10:29:38;;;;;;;;;;;;;;;12.04;67.69;101724.99;107566;1256;71067;-79
2023/04/16 10:32:05;;;;;;;;;;;;;;;12.21;67.26;101725.27;107735;1256;59682;-82
2023/04/16 10:34:35;;;;;;;;;;;;;;;12.31;66.73;101726.81;107407;1257;124481;-79
2023/04/16 10:37:02;;;;;;;;;;;;;;;12.30;66.22;101724.48;107908;1257;74772;-80
2023/04/16 10:39:29;;;;;;;;;;;;;;;12.28;66.20;101726.73;108678;1259;124869;-81
2023/04/16 10:42:10;;;;;;;;;;;;;;;12.22;65.74;101726.87;108747;1256;73032;-79
2023/04/16 10:44:38;;;;;;;;;;;;;;;12.22;65.93;101731.09;108747;1256;59379;-80
2023/04/16 10:47:11;;;;;;;;;;;;;;;12.38;65.86;101733.75;108706;1257;124690;-80
2023/04/16 10:49:42;;;;;;;;;;;;;;;12.33;65.28;101736.03;108807;1257;74693;-81
2023/04/16 10:52:13;;;;;;;;;;;;;;;12.27;65.02;101739.70;108825;1257;124184;-81
2023/04/16 10:54:44;;;;;;;;;;;;;;;12.30;65.18;101740.48;108806;1256;73419;-81
2023/04/16 10:57:15;;;;;;;;;;;;;;;12.37;64.89;101739.69;108678;1256;124808;-81
2023/04/16 10:59:42;;;;;;;;;;;;;;;12.49;65.11;101743.07;108784;1256;59255;-81
2023/04/16 11:02:13;;;;;;;;;;;;;;;12.62;64.67;101746.70;108786;1256;74696;-82
2023/04/16 11:04:46;;;;;;;;;;;;;;;12.53;64.27;101751.48;108510;1263;125547;-80
2023/04/16 11:07:20;;;;;;;;;;;;;;;12.50;64.14;101751.02;107780;1257;71401;-81
2023/04/16 11:09:47;;;;;;;;;;;;;;;12.49;64.16;101751.50;107797;1256;124390;-82
2023/04/16 11:12:17;;;;;;;;;;;;;;;12.55;64.00;101756.99;107851;1257;59494;-81
2023/04/16 11:14:54;;;;;;;;;;;;;;;12.64;64.01;101758.71;107792;1256;74711;-81
2023/04/16 11:17:21;;;;;;;;;;;;;;;12.67;63.58;101758.27;107758;1257;67328;-80
2023/04/16 11:19:48;;;;;;;;;;;;;;;12.61;63.39;101762.13;107612;1256;72702;-81
2023/04/16 11:22:16;;;;;;;;;;;;;;;12.55;63.24;101765.80;107643;1256;124828;-80
2023/04/16 11:24:44;;;;;;;;;;;;;;;12.47;63.52;101764.30;107572;1261;61070;-80
2023/04/16 11:27:18;;;;;;;;;;;;;;;12.42;63.37;101762.75;107359;1256;124243;-84
2023/04/16 11:29:45;;;;;;;;;;;;;;;12.49;63.55;101767.38;107440;1256;67634;-81
2023/04/16 11:32:19;;;;;;;;;;;;;;;12.54;63.19;101764.35;107377;1256;72699;-79
2023/04/16 11:34:46;;;;;;;;;;;;;;;12.45;63.01;101775.52;107401;1261;124928;-78
2023/04/16 11:37:14;;;;;;;;;;;;;;;12.34;62.96;101782.02;107391;1256;60545;-80
2023/04/16 11:39:51;;;;;;;;;;;;;;;12.13;62.88;101780.92;107128;1256;124541;-79
2023/04/16 11:42:23;;;;;;;;;;;;;;;11.96;63.19;101787.55;107547;1256;65815;-78
2023/04/16 11:44:54;;;;;;;;;;;;;;;11.81;63.21;101787.33;107908;1256;73051;-79
2023/04/16 11:47:22;;;;;;;;;;;;;;;11.68;63.41;101787.18;107694;1259;61161;-81
2023/04/16 11:49:49;;;;;;;;;;;;;;;11.74;63.68;101790.40;107228;1257;60424;-82
2023/04/16 11:52:28;;;;;;;;;;;;;;;11.87;63.81;101791.93;107380;1256;124329;-81
2023/04/16 11:55:03;;;;;;;;;;;;;;;12.04;63.81;101787.28;107485;1256;65766;-82
2023/04/16 11:57:33;;;;;;;;;;;;;;;12.22;63.65;101789.48;107464;1256;124245;-83
2023/04/16 12:00:03;;;;;;;;;;;;;;;12.40;63.50;101792.77;107754;1256;61171;-81
2023/04/16 12:02:39;;;;;;;;;;;;;;;12.39;62.77;101791.51;108853;1256;59722;-82
2023/04/16 12:05:34;;;;;;;;;;;;;;;12.33;62.64;101790.05;108836;1256;75766;-80
2023/04/16 12:08:02;;;;;;;;;;;;;;;12.22;62.70;101792.67;108839;1256;67019;-82
2023/04/16 12:10:30;;;;;;;;;;;;;;;12.23;62.90;101789.53;107393;1256;124551;-82
2023/04/16 12:13:14;;;;;;;;;;;;;;;12.29;63.01;101795.91;107426;1257;60459;-78
2023/04/16 12:15:48;;;;;;;;;;;;;;;12.23;62.61;101797.81;107248;1256;238530;-81
2023/04/16 12:18:15;;;;;;;;;;;;;;;12.16;62.75;101792.48;107726;1256;73412;-81
2023/04/16 12:20:42;;;;;;;;;;;;;;;12.24;63.10;101797.32;107694;1256;65781;-81
2023/04/16 12:23:22;;;;;;;;;;;;;;;12.38;62.98;101796.22;107531;1257;124364;-83
2023/04/16 12:25:50;;;;;;;;;;;;;;;12.45;62.71;101802.08;107568;1256;61273;-80
2023/04/16 12:28:30;;;;;;;;;;;;;;;12.42;62.44;101803.92;107596;1261;124082;-83
2023/04/16 12:30:58;;;;;;;;;;;;;;;12.30;62.27;101806.85;107712;1256;74697;-83
2023/04/16 12:33:31;;;;;;;;;;;;;;;12.29;62.64;101803.84;107331;1264;124619;-83
2023/04/16 12:36:18;;;;;;;;;;;;;;;12.42;62.53;101808.52;107535;1256;71313;-81